Time;durP1;ratioP1;P1;durP2;ratioP2;P2;SDS_P1;SDS_P2;PMS_P1;PMS_P2;Temp;Humidity;BMP_temperature;BMP_pressure;BME280_temperature;BME280_humidity;BME280_pressure;Samples;Min_cycle;Max_cycle;Signal;HPM_P1;HPM_P2
2021/12/11 00:00:22;;;;;;;;;;;;;;;-13.57;67.79;101022.66;4842557;29;20057;-62
2021/12/11 00:03:17;;;;;;;11.07;5.20;;;;;;;-13.56;68.03;101031.38;4840540;29;19972;-65
2021/12/11 00:05:49;;;;;;;13.48;5.38;;;;;;;-13.60;67.38;101040.69;4841141;29;20157;-63
2021/12/11 00:08:21;;;;;;;11.07;4.10;;;;;;;-13.60;67.23;101035.34;4842407;29;20585;-65
2021/12/11 00:10:56;;;;;;;7.65;4.55;;;;;;;-13.60;68.23;101038.00;4840728;29;20061;-63
2021/12/11 00:13:29;;;;;;;12.20;4.97;;;;;;;-13.61;68.13;101032.78;4842069;29;20057;-64
2021/12/11 00:15:58;;;;;;;5.82;3.92;;;;;;;-13.62;67.29;101042.66;4840903;29;20049;-66
2021/12/11 00:18:27;;;;;;;7.60;3.45;;;;;;;-13.64;67.40;101049.13;4842239;29;20050;-66
2021/12/11 00:21:00;;;;;;;65.07;18.00;;;;;;;-13.65;68.00;101036.75;4840867;29;20054;-62
2021/12/11 00:23:37;;;;;;;11.75;5.03;;;;;;;-13.68;67.35;101045.88;4841784;29;20053;-59
2021/12/11 00:26:08;;;;;;;9.18;4.00;;;;;;;-13.67;67.58;101036.91;4840955;29;20054;-61
2021/12/11 00:28:50;;;;;;;10.35;5.10;;;;;;;-13.66;67.32;101035.03;4841386;29;20153;-64
2021/12/11 00:31:17;;;;;;;8.00;3.78;;;;;;;-13.73;67.84;101034.78;4841940;29;20085;-55
2021/12/11 00:33:47;;;;;;;8.07;3.72;;;;;;;-13.83;67.40;101039.28;4840593;29;20058;-63
2021/12/11 00:36:18;;;;;;;14.13;4.90;;;;;;;-13.92;68.14;101028.59;4838473;29;20057;-62
2021/12/11 00:38:48;;;;;;;11.00;4.32;;;;;;;-13.95;67.40;101024.38;4840376;29;20057;-63
2021/12/11 00:41:16;;;;;;;;;;;;;;;-13.93;68.22;101033.09;4839239;29;20418;-63
2021/12/11 00:43:45;;;;;;;8.38;3.10;;;;;;;-13.97;67.25;101039.72;4840850;29;20031;-61
2021/12/11 00:46:33;;;;;;;8.00;4.10;;;;;;;-13.94;67.84;101031.41;4854356;29;20081;-63
2021/12/11 00:49:17;;;;;;;7.95;4.63;;;;;;;-13.95;68.00;101035.06;4840569;29;20069;-62
2021/12/11 00:51:53;;;;;;;19.35;5.35;;;;;;;-13.92;68.11;101026.75;4842449;29;20077;-63
2021/12/11 00:54:22;;;;;;;10.85;5.43;;;;;;;-13.92;67.95;101023.25;4840265;29;20433;-63
2021/12/11 00:56:50;;;;;;;8.43;4.07;;;;;;;-13.90;67.72;101031.97;4841857;29;20477;-61
2021/12/11 00:59:20;;;;;;;11.63;5.07;;;;;;;-13.93;68.23;101027.75;4839793;29;20058;-63
2021/12/11 01:01:58;;;;;;;13.55;4.13;;;;;;;-14.05;67.77;101018.19;4841305;29;20407;-64
2021/12/11 01:04:42;;;;;;;9.27;4.38;;;;;;;-14.04;68.15;101030.56;4841382;29;20382;-63
2021/12/11 01:07:21;;;;;;;7.18;2.95;;;;;;;-14.06;68.37;101026.34;4849525;29;20050;-63
2021/12/11 01:09:53;;;;;;;4.82;2.55;;;;;;;-14.07;68.00;101033.50;4839071;29;20066;-65
2021/12/11 01:12:36;;;;;;;6.50;3.58;;;;;;;-14.10;68.57;101027.63;4840183;29;20066;-60
2021/12/11 01:15:14;;;;;;;9.32;3.97;;;;;;;-14.11;68.11;101033.94;4840955;29;20073;-61
2021/12/11 01:20:55;;;;;;;6.97;3.45;;;;;;;-14.15;67.81;101036.03;4839712;29;20058;-63
2021/12/11 01:26:05;;;;;;;16.23;4.28;;;;;;;-14.16;67.99;101042.34;4838250;29;20517;-59
2021/12/11 01:28:33;;;;;;;9.98;4.32;;;;;;;-14.17;68.00;101035.34;4840870;29;20094;-59
2021/12/11 01:31:02;;;;;;;11.70;5.15;;;;;;;-14.14;68.41;101037.72;4838583;29;20053;-57
2021/12/11 01:33:29;;;;;;;13.98;5.13;;;;;;;-14.13;67.88;101033.22;4840884;29;20054;-59
2021/12/11 01:35:57;;;;;;;4.93;3.25;;;;;;;-14.20;68.37;101032.94;4839476;29;20462;-61
2021/12/11 01:38:28;;;;;;;13.70;5.45;;;;;;;-14.18;67.79;101028.28;4840914;29;20448;-63
2021/12/11 01:41:12;;;;;;;9.32;4.00;;;;;;;-14.17;68.14;101046.03;4839318;29;20060;-59
2021/12/11 01:43:41;;;;;;;38.92;11.50;;;;;;;-14.21;68.04;101041.09;4840082;29;20413;-60
2021/12/11 01:46:08;;;;;;;8.45;4.05;;;;;;;-14.20;68.17;101040.97;4839274;29;20061;-59
2021/12/11 01:48:42;;;;;;;9.55;3.60;;;;;;;-14.19;67.81;101045.31;4840528;29;20053;-54
2021/12/11 01:51:45;;;;;;;9.80;3.60;;;;;;;-14.21;68.29;101055.28;4839354;29;20194;-59
2021/12/11 01:54:26;;;;;;;19.02;6.28;;;;;;;-14.22;67.91;101058.09;4820497;29;20101;-61
2021/12/11 01:57:00;;;;;;;6.65;3.88;;;;;;;-14.32;67.89;101050.13;4839437;29;20058;-61
2021/12/11 01:59:34;;;;;;;14.52;4.28;;;;;;;-14.31;68.11;101058.94;4839204;29;20421;-65
2021/12/11 02:02:21;;;;;;;6.47;3.40;;;;;;;-14.28;67.90;101054.19;4840647;29;20079;-66
2021/12/11 02:04:53;;;;;;;4.63;2.50;;;;;;;-14.27;68.14;101050.53;4840074;29;20062;-64
2021/12/11 02:07:27;;;;;;;7.45;3.67;;;;;;;-14.30;67.76;101064.16;4839522;29;20677;-65
2021/12/11 02:09:57;;;;;;;8.45;3.20;;;;;;;-14.28;67.61;101053.34;4836228;29;20085;-66
2021/12/11 02:12:29;;;;;;;;;;;;;;;-14.29;67.75;101057.84;4839764;29;20509;-65
2021/12/11 02:14:59;;;;;;;5.93;3.85;;;;;;;-14.26;67.81;101057.59;4840432;29;19986;-64
2021/12/11 02:17:36;;;;;;;11.13;4.45;;;;;;;-14.30;68.08;101056.16;4839106;29;20050;-64
2021/12/11 02:20:11;;;;;;;10.57;4.07;;;;;;;-14.29;67.73;101055.19;4840733;29;20066;-63
2021/12/11 02:22:45;;;;;;;16.25;7.20;;;;;;;-14.35;67.65;101049.53;4838836;29;20062;-59
2021/12/11 02:25:17;;;;;;;9.95;4.85;;;;;;;-14.38;68.03;101060.50;4840184;29;20509;-65
2021/12/11 02:27:50;;;;;;;6.90;3.60;;;;;;;-14.43;67.92;101057.38;4838760;29;20051;-66
2021/12/11 02:30:37;;;;;;;11.35;4.78;;;;;;;-14.38;67.86;101066.69;4840145;29;20464;-66
2021/12/11 02:33:28;;;;;;;3.78;2.92;;;;;;;-14.36;67.58;101066.56;4833756;29;20507;-64
2021/12/11 02:36:13;;;;;;;6.32;3.30;;;;;;;-14.37;67.64;101075.53;4839414;29;20196;-65
2021/12/11 02:38:47;;;;;;;10.75;4.47;;;;;;;-14.41;67.46;101080.31;4832742;29;20117;-61
2021/12/11 02:41:49;;;;;;;11.65;3.95;;;;;;;-14.43;67.46;101062.72;4838815;29;20140;-58
2021/12/11 02:44:37;;;;;;;8.25;4.25;;;;;;;-14.41;67.60;101058.09;4838707;29;20050;-61
2021/12/11 02:47:20;;;;;;;8.13;4.38;;;;;;;-14.42;67.96;101059.91;4822398;29;20150;-59
2021/12/11 02:50:01;;;;;;;19.25;4.50;;;;;;;-14.44;67.62;101061.03;4838775;29;20069;-58
2021/12/11 02:53:07;;;;;;;18.88;6.50;;;;;;;-14.48;67.57;101043.63;4839455;29;20136;-61
2021/12/11 02:55:47;;;;;;;9.60;4.15;;;;;;;-14.47;67.51;101054.16;4836095;29;20140;-64
2021/12/11 02:58:24;;;;;;;9.90;4.85;;;;;;;-14.49;67.58;101050.78;4842606;29;20056;-68
2021/12/11 03:00:55;;;;;;;8.32;3.63;;;;;;;-14.53;67.32;101057.38;4842489;29;20050;-68
2021/12/11 03:03:31;;;;;;;3.53;2.05;;;;;;;-14.57;67.42;101063.13;4843673;29;20529;-59
2021/12/11 03:06:24;;;;;;;18.65;5.90;;;;;;;-14.59;67.36;101065.94;4842086;29;20060;-63
2021/12/11 03:08:48;;;;;;;10.73;3.83;;;;;;;-14.61;67.68;101059.88;4842756;29;20141;-63
2021/12/11 03:11:18;;;;;;;12.98;4.47;;;;;;;-14.63;67.72;101059.16;4841901;29;20162;-58
2021/12/11 03:13:50;;;;;;;11.25;5.07;;;;;;;-14.69;67.50;101062.38;4843208;29;20123;-64
2021/12/11 03:16:20;;;;;;;7.28;4.18;;;;;;;-14.67;67.23;101054.22;4842331;29;20555;-62
2021/12/11 03:18:48;;;;;;;10.95;4.75;;;;;;;-14.64;66.97;101057.47;4842792;29;20056;-61
2021/12/11 03:21:15;;;;;;;14.15;6.43;;;;;;;-14.66;67.25;101067.44;4841866;29;20105;-61
2021/12/11 03:23:43;;;;;;;7.18;2.47;;;;;;;-14.70;67.29;101063.34;4843284;29;20144;-63
2021/12/11 03:26:10;;;;;;;10.98;4.88;;;;;;;-14.67;67.55;101068.44;4842040;29;21253;-64
2021/12/11 03:28:38;;;;;;;16.58;6.07;;;;;;;-14.63;67.31;101075.16;4843293;29;20046;-64
2021/12/11 03:31:07;;;;;;;11.68;4.30;;;;;;;-14.66;67.12;101067.44;4841706;29;20445;-62
2021/12/11 03:33:39;;;;;;;7.13;3.67;;;;;;;-14.64;67.17;101073.50;4842667;29;20114;-62
2021/12/11 03:36:09;;;;;;;10.40;4.60;;;;;;;-14.63;67.08;101072.50;4840176;29;20058;-60
2021/12/11 03:38:38;;;;;;;7.07;4.33;;;;;;;-14.60;67.20;101064.22;4842731;29;20077;-61
2021/12/11 03:41:07;;;;;;;11.27;5.27;;;;;;;-14.59;66.89;101068.59;4841784;29;20136;-65
2021/12/11 03:43:34;;;;;;;10.93;6.50;;;;;;;-14.57;66.87;101069.28;4843057;29;20057;-63
2021/12/11 03:46:07;;;;;;;8.85;4.78;;;;;;;-14.56;67.05;101065.66;4841848;29;20053;-64
2021/12/11 03:48:44;;;;;;;12.15;4.97;;;;;;;-14.59;67.09;101060.59;4840066;29;20046;-61
2021/12/11 03:51:14;;;;;;;7.53;4.05;;;;;;;-14.61;67.30;101051.84;4839845;29;20148;-60
2021/12/11 03:53:41;;;;;;;10.98;3.72;;;;;;;-14.57;67.36;101061.28;4842648;29;20069;-64
2021/12/11 03:56:13;;;;;;;9.35;4.32;;;;;;;-14.53;67.20;101064.53;4841601;29;20054;-62
2021/12/11 03:58:48;;;;;;;5.93;3.28;;;;;;;-14.52;67.20;101055.53;4842453;29;20085;-62
2021/12/11 04:01:19;;;;;;;10.07;4.95;;;;;;;-14.54;67.09;101058.34;4851187;29;20069;-62
2021/12/11 04:03:48;;;;;;;9.65;4.88;;;;;;;-14.57;67.08;101052.44;4842219;29;20111;-60
2021/12/11 04:06:17;;;;;;;10.68;4.45;;;;;;;-14.61;66.81;101057.19;4841414;29;20491;-60
2021/12/11 04:08:47;;;;;;;11.18;4.53;;;;;;;-14.66;67.23;101059.41;4842107;29;20137;-68
2021/12/11 04:11:21;;;;;;;11.50;5.90;;;;;;;-14.71;67.92;101051.00;4839571;29;20083;-67
2021/12/11 04:13:51;;;;;;;9.43;4.63;;;;;;;-14.76;67.78;101050.53;4842265;29;20536;-68
2021/12/11 04:16:18;;;;;;;10.40;5.65;;;;;;;-14.82;67.65;101045.75;4841274;29;20092;-67
2021/12/11 04:18:45;;;;;;;19.50;5.30;;;;;;;-14.83;67.30;101048.56;4841774;29;20526;-58
2021/12/11 04:21:13;;;;;;;3.30;1.90;;;;;;;-14.82;67.12;101042.22;4840535;29;20057;-63
2021/12/11 04:23:40;;;;;;;5.35;2.88;;;;;;;-14.81;67.18;101047.44;4842035;29;20076;-53
2021/12/11 04:26:08;;;;;;;7.32;2.80;;;;;;;-14.82;67.23;101048.41;4841710;29;20061;-60
2021/12/11 04:28:37;;;;;;;17.05;4.90;;;;;;;-14.82;67.04;101064.44;4841336;29;20149;-57
2021/12/11 04:31:14;;;;;;;8.77;4.55;;;;;;;-14.80;67.01;101057.16;4842051;29;20498;-57
2021/12/11 04:33:45;;;;;;;10.00;4.50;;;;;;;-14.81;66.97;101052.75;4838760;29;20137;-58
2021/12/11 04:36:17;;;;;;;12.02;5.20;;;;;;;-14.89;67.31;101052.63;4839626;29;20426;-58
2021/12/11 04:38:45;;;;;;;14.45;5.72;;;;;;;-14.93;67.44;101039.66;4842322;29;20049;-61
2021/12/11 04:41:18;;;;;;;15.73;7.53;;;;;;;-14.91;67.04;101051.03;4841277;29;20058;-63
2021/12/11 04:43:47;;;;;;;12.32;5.55;;;;;;;-14.92;67.78;101036.88;4841757;29;20136;-61
2021/12/11 04:46:15;;;;;;;13.07;6.95;;;;;;;-14.96;67.47;101046.09;4840908;29;20054;-58
2021/12/11 04:51:29;;;;;;;5.88;3.97;;;;;;;-15.02;67.14;101046.63;4841158;29;20054;-61
2021/12/11 05:08:38;;;;;;;15.05;4.82;;;;;;;-14.97;67.20;101048.91;4841169;29;20064;-57
2021/12/11 05:10:22;;;;;;;12.93;4.80;;;;;;;-14.96;68.12;101048.78;4832606;29;20114;-61
2021/12/11 05:12:53;;;;;;;12.95;4.90;;;;;;;-14.96;67.20;101046.09;4840433;29;20454;-64
2021/12/11 05:15:25;;;;;;;15.18;5.97;;;;;;;-14.95;67.12;101047.81;4841105;29;20054;-59
2021/12/11 05:17:55;;;;;;;11.57;4.80;;;;;;;-14.90;67.18;101040.22;4840420;29;20050;-62
2021/12/11 05:20:26;;;;;;;15.30;5.80;;;;;;;-14.88;67.61;101035.63;4841278;29;20510;-55
2021/12/11 05:22:53;;;;;;;15.18;6.00;;;;;;;-14.86;67.56;101039.00;4840849;29;20060;-62
2021/12/11 05:25:20;;;;;;;12.40;5.63;;;;;;;-14.79;67.35;101026.78;4840723;29;20058;-59
2021/12/11 05:27:47;;;;;;;2.15;1.30;;;;;;;-14.80;67.07;101029.59;4840873;29;20521;-62
2021/12/11 05:30:21;;;;;;;7.75;4.53;;;;;;;-14.82;66.68;101031.53;4839908;29;20061;-61
2021/12/11 05:32:49;;;;;;;18.98;7.00;;;;;;;-14.79;67.13;101039.28;4840987;29;20145;-61
2021/12/11 05:35:17;;;;;;;10.07;5.20;;;;;;;-14.83;67.21;101056.56;4839383;29;20058;-56
2021/12/11 05:37:44;;;;;;;7.55;4.18;;;;;;;-14.90;67.04;101044.75;4841869;29;20455;-61
2021/12/11 05:40:15;;;;;;;7.30;3.55;;;;;;;-14.89;67.31;101047.28;4839382;29;20057;-64
2021/12/11 05:42:42;;;;;;;;;;;;;;;-14.91;67.21;101043.88;4841040;29;20081;-65
2021/12/11 05:45:09;;;;;;;10.10;5.07;;;;;;;-14.94;67.02;101054.84;4839399;29;19928;-64
2021/12/11 05:47:36;;;;;;;6.55;4.38;;;;;;;-14.95;67.36;101049.63;4840779;29;20191;-64
2021/12/11 05:50:07;;;;;;;6.07;3.67;;;;;;;-14.94;67.38;101049.50;4839298;29;20081;-64
2021/12/11 05:52:35;;;;;;;17.70;5.18;;;;;;;-14.90;67.48;101050.09;4841319;29;20058;-65
2021/12/11 05:55:07;;;;;;;6.93;3.75;;;;;;;-14.89;67.31;101047.28;4839366;29;20053;-61
2021/12/11 05:57:36;;;;;;;9.90;4.13;;;;;;;-14.90;67.10;101053.56;4840567;29;20046;-63
2021/12/11 06:00:09;;;;;;;13.32;4.80;;;;;;;-14.85;66.86;101054.03;4839669;29;20050;-64
2021/12/11 06:02:57;;;;;;;6.80;4.18;;;;;;;-14.80;67.08;101051.81;4840556;29;20058;-63
2021/12/11 06:05:25;;;;;;;7.80;4.53;;;;;;;-14.77;67.08;101058.69;4839520;29;20050;-60
2021/12/11 06:07:52;;;;;;;12.05;4.72;;;;;;;-14.81;67.19;101060.78;4840526;29;20058;-63
2021/12/11 06:10:21;;;;;;;14.48;5.55;;;;;;;-14.80;67.18;101057.16;4839030;29;20058;-63
2021/12/11 06:12:52;;;;;;;7.47;4.00;;;;;;;-14.78;67.54;101063.19;4840649;29;20062;-56
2021/12/11 06:15:19;;;;;;;9.88;3.65;;;;;;;-14.72;66.97;101072.50;4839459;29;20136;-63
2021/12/11 06:17:47;;;;;;;14.23;4.78;;;;;;;-14.70;67.10;101060.69;4840673;29;20510;-60
2021/12/11 06:20:17;;;;;;;9.23;4.40;;;;;;;-14.60;67.04;101068.75;4839253;29;20089;-62
2021/12/11 06:22:46;;;;;;;14.65;7.40;;;;;;;-14.56;66.25;101071.00;4840395;29;20402;-53
2021/12/11 06:25:17;;;;;;;12.15;5.72;;;;;;;-14.53;66.73;101068.06;4840007;29;20096;-63
2021/12/11 06:27:44;;;;;;;12.20;4.57;;;;;;;-14.50;67.21;101073.13;4840126;29;20180;-64
2021/12/11 06:30:13;;;;;;;11.55;5.60;;;;;;;-14.42;66.67;101073.28;4842360;29;20577;-59
2021/12/11 06:32:41;;;;;;;7.32;4.30;;;;;;;-14.32;66.49;101076.84;4843709;29;20062;-62
2021/12/11 06:35:28;;;;;;;8.95;2.92;;;;;;;-14.27;66.60;101071.06;4842505;29;20535;-63
2021/12/11 06:37:56;;;;;;;13.50;6.28;;;;;;;-14.34;66.33;101065.44;4843643;29;20526;-61
2021/12/11 06:40:25;;;;;;;8.25;3.05;;;;;;;-14.33;66.24;101064.44;4841752;29;20057;-61
2021/12/11 06:42:53;;;;;;;13.23;6.72;;;;;;;-14.30;66.51;101066.00;4844098;29;20054;-60
2021/12/11 06:45:23;;;;;;;16.33;4.15;;;;;;;-14.35;66.04;101058.41;4842364;29;20141;-64
2021/12/11 06:47:50;;;;;;;9.45;4.82;;;;;;;-14.32;66.30;101052.78;4843594;29;20077;-64
2021/12/11 06:50:18;;;;;;;14.88;6.55;;;;;;;-14.28;65.97;101064.03;4842795;29;20118;-59
2021/12/11 06:52:48;;;;;;;8.43;4.55;;;;;;;-14.27;65.96;101055.88;4843482;29;20074;-63
2021/12/11 06:55:17;;;;;;;6.50;3.57;;;;;;;-14.28;66.13;101051.50;4842159;29;20058;-62
2021/12/11 06:57:44;;;;;;;14.85;7.40;;;;;;;-14.32;65.78;101052.78;4843217;29;20053;-59
2021/12/11 07:00:14;;;;;;;16.88;5.72;;;;;;;-14.30;65.69;101049.97;4842031;29;20081;-63
2021/12/11 07:02:41;;;;;;;6.90;4.03;;;;;;;-14.21;65.84;101049.94;4842247;29;20058;-60
2021/12/11 07:05:09;;;;;;;18.77;8.13;;;;;;;-14.11;65.37;101042.78;4842431;29;20118;-65
2021/12/11 07:07:37;;;;;;;11.55;4.63;;;;;;;-14.05;65.13;101039.56;4843078;29;20057;-62
2021/12/11 07:10:08;;;;;;;15.30;6.97;;;;;;;-14.02;65.59;101049.97;4841839;29;20485;-61
2021/12/11 07:12:35;;;;;;;15.02;5.53;;;;;;;-13.98;65.76;101054.06;4843261;29;20145;-60
2021/12/11 07:15:04;;;;;;;8.93;5.25;;;;;;;-13.86;65.24;101049.44;4842670;29;20069;-60
2021/12/11 07:17:32;;;;;;;15.30;6.57;;;;;;;-13.76;65.56;101061.81;4840008;29;20592;-65
2021/12/11 07:19:59;;;;;;;13.00;7.15;;;;;;;-13.69;65.31;101062.94;4842353;29;20050;-62
2021/12/11 07:22:26;;;;;;;11.38;5.47;;;;;;;-13.52;65.51;101071.22;4842573;29;20517;-63
2021/12/11 07:24:58;;;;;;;15.93;7.72;;;;;;;-13.41;65.88;101065.72;4843325;29;20052;-61
2021/12/11 07:27:25;;;;;;;9.88;5.20;;;;;;;-13.40;65.67;101062.91;4843150;29;20069;-58
2021/12/11 07:29:52;;;;;;;19.48;6.35;;;;;;;-13.39;65.36;101069.09;4843355;29;20042;-63
2021/12/11 07:32:19;;;;;;;27.13;12.90;;;;;;;-13.39;64.86;101063.75;4842030;29;20577;-64
2021/12/11 07:34:46;;;;;;;15.82;7.70;;;;;;;-13.30;65.41;101069.06;4843237;29;20046;-62
2021/12/11 07:37:14;;;;;;;13.32;5.32;;;;;;;-13.22;64.27;101071.88;4841903;29;20146;-64
2021/12/11 07:39:40;;;;;;;4.10;2.70;;;;;;;-13.17;64.14;101071.44;4842566;29;20089;-62
2021/12/11 07:42:08;;;;;;;11.00;5.88;;;;;;;-13.06;64.54;101071.28;4840842;29;20135;-64
2021/12/11 07:44:36;;;;;;;11.15;6.45;;;;;;;-13.08;64.49;101065.22;4843609;29;20079;-62
2021/12/11 07:47:05;;;;;;;3.38;2.53;;;;;;;-12.95;65.19;101071.91;4841800;29;20463;-58
2021/12/11 07:49:32;;;;;;;11.93;5.82;;;;;;;-12.86;64.88;101072.88;4842749;29;20049;-64
2021/12/11 07:51:59;;;;;;;18.90;7.07;;;;;;;-12.85;65.11;101061.19;4841115;29;20132;-65
2021/12/11 07:54:26;;;;;;;10.77;3.85;;;;;;;-12.69;63.96;101070.28;4842404;29;20054;-64
2021/12/11 07:56:54;;;;;;;11.07;6.25;;;;;;;-12.60;63.34;101082.78;4841222;29;20060;-62
2021/12/11 07:59:21;;;;;;;10.48;5.68;;;;;;;-12.58;64.63;101078.13;4842370;29;20289;-62
2021/12/11 08:01:51;;;;;;;13.98;6.43;;;;;;;-12.51;63.34;101078.38;4840042;29;20584;-55
2021/12/11 08:04:20;;;;;;;11.85;5.38;;;;;;;-12.36;63.39;101082.25;4839367;29;20046;-59
2021/12/11 08:06:48;;;;;;;15.02;6.47;;;;;;;-12.21;62.46;101086.13;4841381;29;20054;-59
2021/12/11 08:09:17;;;;;;;14.80;5.55;;;;;;;-12.02;62.31;101077.97;4841851;29;20133;-62
2021/12/11 08:11:45;;;;;;;16.02;6.53;;;;;;;-11.80;63.54;101080.19;4841994;29;20060;-56
2021/12/11 08:14:12;;;;;;;13.68;6.80;;;;;;;-11.80;62.17;101082.88;4857424;29;20136;-61
2021/12/11 08:16:46;;;;;;;7.50;4.15;;;;;;;-11.78;61.80;101083.59;4842574;29;20057;-64
2021/12/11 08:19:23;;;;;;;11.38;4.97;;;;;;;-11.69;62.04;101071.94;4841811;29;20065;-69
2021/12/11 08:21:54;;;;;;;9.18;4.25;;;;;;;-11.41;61.06;101070.81;4841369;29;20054;-65
2021/12/11 08:24:23;;;;;;;13.45;5.68;;;;;;;-10.95;60.56;101073.19;4839334;29;20061;-67
2021/12/11 08:26:54;;;;;;;12.23;4.90;;;;;;;-10.38;58.87;101072.50;4840790;29;20045;-68
2021/12/11 08:29:20;;;;;;;;;;;;;;;-10.34;58.44;101071.16;4839554;29;20147;-68
2021/12/11 08:31:53;;;;;;;12.80;5.32;;;;;;;-10.79;58.65;101065.22;4841604;29;19935;-65
2021/12/11 08:34:20;;;;;;;9.80;4.10;;;;;;;-10.83;58.06;101061.16;4841718;29;20072;-69
2021/12/11 08:36:48;;;;;;;11.93;4.55;;;;;;;-10.73;58.11;101055.66;4841650;29;20065;-67
2021/12/11 08:39:17;;;;;;;13.65;5.63;;;;;;;-10.84;58.60;101074.75;4841465;29;20050;-66
2021/12/11 08:41:46;;;;;;;17.30;6.03;;;;;;;-10.99;58.33;101068.28;4841658;29;20480;-67
2021/12/11 08:44:16;;;;;;;10.68;4.65;;;;;;;-11.13;58.43;101053.59;4841815;29;20058;-68
2021/12/11 08:46:49;;;;;;;13.18;6.30;;;;;;;-11.16;59.40;101043.16;4840330;29;20506;-69
2021/12/11 08:49:23;;;;;;;21.73;5.47;;;;;;;-10.95;58.05;101046.31;4841264;29;20046;-69
2021/12/11 08:52:06;;;;;;;11.65;4.78;;;;;;;-10.75;58.17;101031.63;4849698;29;20056;-61
2021/12/11 08:54:35;;;;;;;13.77;6.15;;;;;;;-10.47;58.50;101033.13;4839409;29;20140;-60
2021/12/11 08:57:06;;;;;;;9.82;5.18;;;;;;;-9.83;57.22;101025.19;4840250;29;20065;-62
2021/12/11 08:59:35;;;;;;;11.38;5.10;;;;;;;-8.73;55.38;101031.72;4841356;29;20524;-62
2021/12/11 09:02:06;;;;;;;11.15;5.03;;;;;;;-8.33;54.99;101022.59;4840160;29;20147;-60
2021/12/11 09:04:48;;;;;;;9.63;4.47;;;;;;;-8.61;55.70;101026.78;4841213;29;20573;-64
2021/12/11 09:07:31;;;;;;;12.40;5.25;;;;;;;-8.94;55.64;101022.47;4840048;29;20062;-58
2021/12/11 09:10:11;;;;;;;13.95;5.15;;;;;;;-9.27;56.22;101023.53;4840841;29;20545;-58
2021/12/11 09:12:47;;;;;;;19.17;5.20;;;;;;;-9.22;56.78;101034.63;4838915;29;20054;-57
2021/12/11 09:15:20;;;;;;;12.85;4.80;;;;;;;-9.29;56.96;101030.94;4841380;29;20141;-69
2021/12/11 09:17:55;;;;;;;9.57;4.50;;;;;;;-9.56;56.39;101032.94;4841138;29;20141;-61
2021/12/11 09:20:41;;;;;;;14.77;4.32;;;;;;;-9.68;57.33;101028.91;4839750;29;20145;-62
2021/12/11 09:23:24;;;;;;;10.52;4.30;;;;;;;-9.85;57.02;101035.28;4841084;29;20058;-60
2021/12/11 09:25:56;;;;;;;16.52;5.65;;;;;;;-9.99;56.89;101030.56;4839873;29;20104;-60
2021/12/11 09:28:32;;;;;;;23.30;6.55;;;;;;;-10.16;56.51;101018.09;4840988;29;20497;-62
2021/12/11 09:31:11;;;;;;;16.88;6.20;;;;;;;-10.47;56.51;101017.00;4840597;29;20509;-63
2021/12/11 09:33:48;;;;;;;14.60;7.03;;;;;;;-10.84;56.80;101015.66;4840126;29;20054;-68
2021/12/11 09:36:22;;;;;;;15.48;5.85;;;;;;;-11.08;57.37;101010.13;4838214;29;20110;-67
2021/12/11 09:38:55;;;;;;;16.27;5.93;;;;;;;-11.10;58.00;101007.63;4838363;29;20057;-62
2021/12/11 09:41:24;;;;;;;18.98;5.75;;;;;;;-11.21;57.44;101013.25;4840869;29;20053;-59
2021/12/11 09:44:15;;;;;;;13.60;5.95;;;;;;;-11.32;58.45;101009.97;4839474;29;20137;-63
2021/12/11 09:46:45;;;;;;;;;;;;;;;-11.55;59.09;101021.19;4834792;29;20152;-62
2021/12/11 09:49:17;;;;;;;11.23;4.13;;;;;;;-11.62;58.92;101012.09;4839077;29;19928;-64
2021/12/11 09:51:49;;;;;;;13.10;4.88;;;;;;;-11.69;57.97;101010.22;4840579;29;20188;-61
2021/12/11 09:54:21;;;;;;;14.68;6.72;;;;;;;-11.76;59.24;101009.13;4839261;29;20050;-59
2021/12/11 09:57:00;;;;;;;11.85;5.20;;;;;;;-11.79;59.88;101006.75;4840787;29;20046;-61
2021/12/11 09:59:31;;;;;;;13.77;6.60;;;;;;;-11.81;58.66;101003.41;4839830;29;20076;-61
2021/12/11 10:02:06;;;;;;;13.48;5.35;;;;;;;-11.78;58.28;101003.09;4840493;29;20072;-61
2021/12/11 10:04:46;;;;;;;16.75;5.43;;;;;;;-11.81;59.84;101000.72;4838658;29;20067;-60
2021/12/11 10:07:27;;;;;;;17.70;5.70;;;;;;;-11.77;58.91;101005.63;4839049;29;20605;-60
2021/12/11 10:10:00;;;;;;;17.92;7.22;;;;;;;-11.76;59.62;100990.34;4840240;29;20145;-60
2021/12/11 10:12:32;;;;;;;10.70;5.28;;;;;;;-11.74;59.98;100993.75;4839011;29;20089;-58
2021/12/11 10:15:06;;;;;;;20.92;6.88;;;;;;;-11.66;59.29;100991.13;4840182;29;20060;-61
2021/12/11 10:17:41;;;;;;;11.52;5.50;;;;;;;-11.68;59.23;100991.28;4839412;29;20053;-60
2021/12/11 10:20:14;;;;;;;8.30;4.72;;;;;;;-11.64;59.17;100986.44;4840406;29;20054;-59
2021/12/11 10:22:42;;;;;;;11.88;5.60;;;;;;;-11.64;60.71;100983.75;4839270;29;20057;-63
2021/12/11 10:25:18;;;;;;;14.60;5.88;;;;;;;-11.61;60.64;100986.94;4840321;29;20092;-63
2021/12/11 10:27:47;;;;;;;16.73;6.40;;;;;;;-11.55;61.03;100993.53;4839187;29;20090;-62
2021/12/11 10:30:20;;;;;;;8.05;3.65;;;;;;;-11.54;60.51;100984.47;4840631;29;20532;-59
2021/12/11 10:32:47;;;;;;;13.63;5.95;;;;;;;-11.53;60.69;100990.69;4839860;29;20060;-63
2021/12/11 10:35:18;;;;;;;11.48;5.85;;;;;;;-11.52;60.53;100992.38;4840045;29;20068;-63
2021/12/11 10:37:45;;;;;;;18.55;6.07;;;;;;;-11.45;59.63;100988.06;4838926;29;20140;-64
2021/12/11 10:40:30;;;;;;;11.63;5.78;;;;;;;-11.44;60.03;100993.25;4840234;29;20046;-60
2021/12/11 10:43:01;;;;;;;10.40;5.70;;;;;;;-11.48;59.71;100991.91;4852770;29;20076;-64
2021/12/11 10:45:29;;;;;;;12.32;5.68;;;;;;;-11.45;59.89;100983.53;4839458;29;20060;-61
2021/12/11 10:48:04;;;;;;;14.07;6.45;;;;;;;-11.47;61.02;100990.06;4840156;29;20050;-62
2021/12/11 10:50:41;;;;;;;11.55;5.57;;;;;;;-11.47;61.20;100985.53;4839442;29;20506;-60
2021/12/11 10:53:13;;;;;;;10.05;5.18;;;;;;;-11.52;60.66;100977.13;4838468;29;20054;-65
2021/12/11 10:55:41;;;;;;;14.02;6.75;;;;;;;-11.53;60.52;100975.41;4838825;29;20057;-66
2021/12/11 10:58:17;;;;;;;17.05;5.53;;;;;;;-11.54;60.79;100963.00;4839823;29;20058;-64
2021/12/11 11:00:53;;;;;;;14.43;6.75;;;;;;;-11.52;61.29;100969.91;4838732;29;20053;-65
2021/12/11 11:03:21;;;;;;;18.02;5.88;;;;;;;-11.51;61.50;100968.06;4839928;29;20110;-66
2021/12/11 11:05:48;;;;;;;13.57;5.93;;;;;;;-11.50;61.39;100958.19;4855845;29;20057;-65
2021/12/11 11:08:15;;;;;;;14.63;6.60;;;;;;;-11.50;60.27;100967.06;4840015;29;20053;-63
2021/12/11 11:10:52;;;;;;;52.78;16.80;;;;;;;-11.55;61.34;100969.38;4838453;29;20093;-65
2021/12/11 11:13:21;;;;;;;18.38;6.88;;;;;;;-11.54;61.37;100973.75;4839975;29;20110;-65
2021/12/11 11:15:49;;;;;;;11.70;5.47;;;;;;;-11.55;61.55;100972.06;4839743;29;20068;-65
2021/12/11 11:18:18;;;;;;;18.13;6.75;;;;;;;-11.55;61.22;100978.25;4843218;29;20517;-65
2021/12/11 11:20:58;;;;;;;6.20;4.07;;;;;;;-11.58;61.58;100973.19;4842127;29;20145;-65
2021/12/11 11:23:26;;;;;;;11.73;5.63;;;;;;;-11.59;61.61;100970.69;4843108;29;20059;-65
2021/12/11 11:25:56;;;;;;;15.50;5.95;;;;;;;-11.59;62.69;100959.94;4841576;29;20076;-65
2021/12/11 11:28:27;;;;;;;18.67;6.97;;;;;;;-11.61;61.21;100959.25;4842779;29;20077;-62
2021/12/11 11:31:03;;;;;;;17.83;4.97;;;;;;;-11.60;61.80;100963.63;4840504;29;20141;-66
2021/12/11 11:33:31;;;;;;;16.33;7.45;;;;;;;-11.57;61.83;100963.31;4842974;29;20054;-63
2021/12/11 11:36:00;;;;;;;14.93;6.47;;;;;;;-11.56;61.30;100965.84;4841659;29;20054;-61
2021/12/11 11:38:31;;;;;;;9.97;5.63;;;;;;;-11.62;61.49;100946.88;4841521;29;20425;-64
2021/12/11 11:41:04;;;;;;;14.45;6.85;;;;;;;-11.63;63.11;100958.63;4841197;29;20074;-63
2021/12/11 11:43:31;;;;;;;11.88;5.90;;;;;;;-11.64;62.17;100951.53;4842703;29;20058;-63
2021/12/11 11:45:58;;;;;;;124.75;38.10;;;;;;;-11.69;61.74;100952.00;4841204;29;20087;-63
2021/12/11 11:48:30;;;;;;;17.48;5.75;;;;;;;-11.64;62.90;100948.84;4842784;29;20087;-64
2021/12/11 11:51:25;;;;;;;14.65;6.85;;;;;;;-11.66;62.72;100953.56;4842233;29;20050;-65
2021/12/11 11:53:53;;;;;;;12.27;5.03;;;;;;;-11.66;62.11;100948.19;4841745;29;20064;-64
2021/12/11 11:56:29;;;;;;;17.70;8.32;;;;;;;-11.72;63.20;100946.13;4838713;29;20054;-63
2021/12/11 11:58:56;;;;;;;18.92;7.30;;;;;;;-11.73;63.02;100942.59;4841353;29;20057;-65